James Island, South Carolina
Current Conditions -  °F | °C
As of 10:55 AM on Friday 24 Oct 2014 (Local Time) from KJZI Reporting Station
Scattered Clouds Scattered Clouds  
Wind Chill: 64°   Ceiling: Unl
Heat Index: 64°   Visibility: 10mi
Dew Point: 52°   Wind: 0mph
Humidity: 64%   Direction: NA
Pressure: 30.08"   Gusts: NA
Location:  32.7248°N, 79.9608°W
Report Text: KJZI 241455Z AUTO 00000KT 10SM FEW044 FEW075 SCT090 18/11 A3008 RMK A02 P000
Loading
Personal Weather Stations






























Interactive Weather Map New forecast layout! Learn more

10-Day Weather Forecast

Advertisements
Track Severe Weather on mobile